Terminal Aerodrome Forecast
Issued by NWS

Home | Current Version | Previous Version | Text Only | Print | Product List | Glossary On
Versions: 1 2 3 4 5 6 7 8 9 10 11 12 13 14 15 16 17 18
000
FTUS46 KLOX 020500
TAFBUR
TAF
KBUR 020520Z 0206/0306 VRB03KT P6SM SKC
     FM021100 VRB03KT 4SM BR OVC008
     FM021700 16008KT P6SM SKC
     FM030400 VRB03KT P6SM SKC=

USA.gov is the U.S. government's official web portal to all federal, state and local government web resources and services.